Time;durP1;ratioP1;P1;durP2;ratioP2;P2;SDS_P1;SDS_P2;PMS_P1;PMS_P2;Temp;Humidity;BMP_temperature;BMP_pressure;BME280_temperature;BME280_humidity;BME280_pressure;Samples;Min_cycle;Max_cycle;Signal;HPM_P1;HPM_P2
2022/07/19 06:29:17;;;;;;;6.32;3.33;;;;;;;21.98;46.04;96934.03;2084456;28;20585;-63
2022/07/19 06:30:19;;;;;;;10.63;2.97;;;;;;;22.11;45.27;96941.78;2081333;28;20216;-64
2022/07/19 06:31:21;;;;;;;10.02;3.50;;;;;;;22.20;44.79;96937.50;2082449;28;20201;-64
2022/07/19 06:32:23;;;;;;;5.60;2.70;;;;;;;22.38;44.15;96935.06;2075917;28;20268;-64
2022/07/19 06:33:25;;;;;;;11.18;3.08;;;;;;;22.45;43.08;96933.53;2075114;28;20193;-64
2022/07/19 06:34:26;;;;;;;8.02;2.83;;;;;;;22.61;43.36;96932.19;2070447;28;20822;-64
2022/07/19 06:35:28;;;;;;;6.00;2.67;;;;;;;22.68;41.63;96930.66;2070481;28;20194;-64
2022/07/19 06:36:29;;;;;;;6.28;2.33;;;;;;;22.97;41.10;96938.69;2072398;28;20198;-64
2022/07/19 06:37:31;;;;;;;7.38;2.75;;;;;;;23.08;41.60;96942.19;2074977;28;20643;-64
2022/07/19 06:38:32;;;;;;;7.15;2.20;;;;;;;23.07;40.01;96932.50;2072650;28;20205;-64
2022/07/19 07:10:11;;;;;;;6.43;2.03;;;;;;;25.40;33.99;96936.25;2095125;27;20556;-64
2022/07/19 07:11:12;;;;;;;5.70;1.98;;;;;;;25.47;34.35;96929.28;2086841;28;20258;-64
2022/07/19 07:12:14;;;;;;;3.72;1.65;;;;;;;25.68;33.37;96934.28;2076893;28;20221;-64
2022/07/19 07:13:15;;;;;;;7.25;2.15;;;;;;;25.83;33.46;96931.03;2070645;28;20197;-64
2022/07/19 07:14:17;;;;;;;4.80;1.95;;;;;;;25.69;33.74;96925.25;2070127;28;20693;-64
2022/07/19 07:15:18;;;;;;;6.88;2.30;;;;;;;25.73;32.86;96933.81;2070638;28;20557;-64
2022/07/19 07:16:20;;;;;;;3.85;1.88;;;;;;;25.64;32.93;96924.06;2070477;28;20220;-64
2022/07/19 07:17:22;;;;;;;4.50;2.15;;;;;;;25.81;32.71;96933.03;2070042;28;20232;-64
2022/07/19 07:18:23;;;;;;;16.27;2.80;;;;;;;25.81;32.14;96933.03;2069943;28;20201;-64
2022/07/19 07:19:25;;;;;;;4.18;2.10;;;;;;;25.88;32.09;96929.56;2069797;28;20206;-64
2022/07/19 07:20:26;;;;;;;5.38;2.42;;;;;;;26.02;31.62;96930.81;2070813;28;20201;-64
2022/07/19 07:21:28;;;;;;;4.60;1.88;;;;;;;25.85;31.85;96923.69;2070420;28;20237;-64
2022/07/19 07:22:29;;;;;;;4.45;2.17;;;;;;;25.77;31.09;96932.50;2070015;28;20321;-65
2022/07/19 07:53:36;;;;;;;7.95;2.28;;;;;;;27.52;28.87;96928.41;2087199;28;20557;-64
2022/07/19 07:54:38;;;;;;;11.85;1.30;;;;;;;27.20;28.39;96911.28;2086406;28;20188;-63
2022/07/19 07:55:59;;;;;;;4.38;1.98;;;;;;;27.47;28.43;96911.16;2086668;28;20200;-64
2022/07/19 07:57:08;;;;;;;6.20;1.92;;;;;;;27.60;28.59;96924.03;2081653;28;20565;-64
2022/07/19 07:58:11;;;;;;;8.30;1.80;;;;;;;27.62;28.68;96914.81;2078937;28;20209;-64
2022/07/19 07:59:12;;;;;;;5.35;2.13;;;;;;;27.78;28.16;96927.38;2079139;28;20193;-66
2022/07/19 08:00:14;;;;;;;4.88;1.83;;;;;;;27.72;27.87;96913.81;2079127;28;20212;-64
2022/07/19 08:01:16;;;;;;;4.78;1.90;;;;;;;27.85;28.00;96919.50;2079227;28;20214;-64
2022/07/19 08:02:17;;;;;;;7.65;1.50;;;;;;;27.80;28.06;96917.31;2078620;28;20225;-66
2022/07/19 08:03:19;;;;;;;6.93;1.85;;;;;;;28.07;27.79;96917.94;2079009;28;20205;-64
2022/07/19 08:04:20;;;;;;;4.25;1.65;;;;;;;28.00;27.39;96919.63;2078878;28;20193;-64
2022/07/19 08:05:22;;;;;;;5.65;2.20;;;;;;;27.92;27.72;96928.53;2078956;28;20759;-64
2022/07/19 08:06:24;;;;;;;4.65;1.73;;;;;;;27.94;27.16;96918.44;2078827;28;20205;-64
2022/07/19 08:07:25;;;;;;;5.20;1.92;;;;;;;27.95;27.53;96911.25;2078462;28;20225;-64
2022/07/19 08:08:26;;;;;;;5.95;1.90;;;;;;;28.02;27.01;96913.06;2078645;28;20216;-64
2022/07/19 08:39:15;;;;;;;5.88;1.65;;;;;;;29.51;24.04;96906.06;2090140;28;20552;-63
2022/07/19 08:40:16;;;;;;;2.35;1.40;;;;;;;29.51;23.51;96908.75;2092491;28;20196;-64
2022/07/19 08:41:20;;;;;;;7.43;2.90;;;;;;;29.71;23.38;96888.41;2091490;28;20192;-64
2022/07/19 08:42:22;;;;;;;2.63;1.20;;;;;;;29.69;23.15;96901.19;2077621;28;20221;-64
2022/07/19 08:43:23;;;;;;;17.27;2.22;;;;;;;29.24;22.93;96901.06;2075874;28;20193;-64
2022/07/19 08:44:25;;;;;;;6.10;1.80;;;;;;;29.59;23.49;96895.25;2074654;28;20190;-64
2022/07/19 08:45:29;;;;;;;5.57;2.45;;;;;;;29.81;23.63;96890.78;2074884;28;20653;-64
2022/07/19 08:46:31;;;;;;;3.40;1.58;;;;;;;29.77;23.42;96897.56;2075425;28;20205;-64
2022/07/19 08:47:34;;;;;;;5.70;1.60;;;;;;;29.82;23.10;96897.84;2075072;28;20221;-63
2022/07/19 08:48:36;;;;;;;3.75;1.75;;;;;;;29.72;23.46;96887.34;2072647;28;20233;-64
2022/07/19 08:49:48;;;;;;;2.70;1.55;;;;;;;29.67;22.92;96897.00;2074606;28;20201;-63
2022/07/19 08:50:50;;;;;;;9.52;1.63;;;;;;;29.80;23.12;96900.75;2074375;28;20692;-64
2022/07/19 08:51:51;;;;;;;5.22;1.30;;;;;;;29.66;22.73;96893.47;2072076;28;20197;-64
2022/07/19 08:52:53;;;;;;;2.90;1.40;;;;;;;29.39;23.27;96908.34;2072945;28;20201;-63
2022/07/19 08:53:55;;;;;;;8.23;1.83;;;;;;;29.74;23.17;96901.47;2074926;28;20552;-64
2022/07/19 08:54:56;;;;;;;4.43;1.70;;;;;;;30.01;22.75;96895.69;2070417;28;20198;-64
2022/07/19 08:55:59;;;;;;;6.97;1.48;;;;;;;30.30;22.79;96890.25;2073111;28;20200;-64
2022/07/19 08:58:21;;;;;;;6.23;1.63;;;;;;;30.04;22.92;96896.16;2073731;28;20247;-64
2022/07/19 08:59:23;;;;;;;6.60;2.20;;;;;;;30.06;21.88;96893.25;2070458;28;20424;-64
2022/07/19 09:31:23;;;;;;;20.25;1.60;;;;;;;30.46;21.60;96893.75;2085654;28;20528;-63
2022/07/19 09:32:25;;;;;;;20.40;3.33;;;;;;;30.76;21.53;96891.03;2071784;28;20217;-64
2022/07/19 09:33:29;;;;;;;25.05;2.97;;;;;;;31.03;21.10;96897.56;2070495;28;20206;-64
2022/07/19 09:34:37;;;;;;;23.05;3.15;;;;;;;31.17;20.92;96900.38;2069720;28;20197;-63
2022/07/19 09:35:42;;;;;;;9.52;2.40;;;;;;;30.83;21.46;96891.94;2070249;28;20209;-63
2022/07/19 09:36:45;;;;;;;11.87;2.30;;;;;;;30.85;21.25;96895.28;2068555;28;20193;-63
2022/07/19 09:37:47;;;;;;;59.40;5.33;;;;;;;31.41;21.23;96893.75;2070563;28;20435;-64
2022/07/19 09:38:51;;;;;;;28.50;3.00;;;;;;;31.93;21.07;96891.66;2069369;28;20423;-63
2022/07/19 09:39:58;;;;;;;42.33;4.20;;;;;;;31.65;21.04;96902.50;2068800;28;20427;-64
2022/07/19 09:41:06;;;;;;;31.07;3.17;;;;;;;31.61;21.14;96895.78;2069859;28;21134;-63
2022/07/19 09:42:08;;;;;;;20.83;2.40;;;;;;;31.65;21.16;96897.09;2068678;28;20973;-64
2022/07/19 09:43:10;;;;;;;33.17;3.43;;;;;;;31.68;20.98;96897.53;2070494;28;20436;-63
2022/07/19 09:44:31;;;;;;;29.33;2.70;;;;;;;32.03;20.92;96889.44;2069973;28;20423;-64
2022/07/19 09:45:33;;;;;;;28.60;3.13;;;;;;;31.91;20.72;96894.56;2070498;28;20427;-63
2022/07/19 09:46:37;;;;;;;30.80;3.60;;;;;;;31.95;20.52;96895.00;2070444;28;20536;-64
2022/07/19 09:47:43;;;;;;;12.73;1.90;;;;;;;31.76;21.17;96880.38;2069526;28;21041;-64
2022/07/19 09:48:45;;;;;;;19.73;2.43;;;;;;;31.25;21.10;96892.19;2070558;28;20517;-64
2022/07/19 09:49:46;;;;;;;44.27;3.77;;;;;;;31.31;20.73;96888.69;2070288;28;20427;-63
2022/07/19 09:50:48;;;;;;;13.30;2.47;;;;;;;31.39;21.17;96885.88;2070461;28;20551;-64
2022/07/19 09:51:53;;;;;;;11.20;2.80;;;;;;;31.42;21.50;96896.25;2069688;28;20438;-64
2022/07/19 09:52:58;;;;;;;6.20;1.97;;;;;;;31.40;21.33;96894.78;2070407;28;20939;-64
2022/07/19 09:54:01;;;;;;;2.43;1.50;;;;;;;31.54;20.92;96891.19;2068929;28;20427;-64
2022/07/19 09:55:05;;;;;;;8.93;1.60;;;;;;;31.49;21.34;96900.88;2069744;28;21131;-64
2022/07/19 09:56:06;;;;;;;7.87;2.27;;;;;;;31.24;21.13;96894.03;2070506;28;20427;-64
2022/07/19 09:57:08;;;;;;;11.10;2.17;;;;;;;31.06;21.74;96886.41;2069955;28;20967;-63
2022/07/19 09:58:10;;;;;;;5.80;1.60;;;;;;;31.08;21.56;96895.16;2068361;28;20431;-63
2022/07/19 09:59:12;;;;;;;18.73;2.80;;;;;;;31.46;21.15;96894.00;2070448;28;20427;-63
2022/07/19 10:31:00;;;;;;;4.30;1.70;;;;;;;32.59;21.25;96870.63;2100859;27;20570;-63
2022/07/19 10:32:28;;;;;;;11.70;2.00;;;;;;;33.46;20.33;96871.63;2090638;28;20910;-63
2022/07/19 10:33:36;;;;;;;9.37;2.17;;;;;;;33.86;20.13;96868.06;2079688;28;20909;-64
2022/07/19 10:34:39;;;;;;;15.83;2.00;;;;;;;32.84;21.02;96876.31;2079926;28;20426;-64
2022/07/19 10:35:40;;;;;;;10.83;2.03;;;;;;;32.11;21.80;96863.31;2079488;28;20426;-63
2022/07/19 10:36:53;;;;;;;3.93;1.67;;;;;;;32.22;21.71;96868.19;2079834;28;20422;-64
2022/07/19 10:38:15;;;;;;;4.20;1.83;;;;;;;31.83;21.68;96854.22;2073778;28;20434;-64
2022/07/19 10:39:42;;;;;;;8.37;2.30;;;;;;;32.44;21.21;96866.19;2072604;28;20435;-64
2022/07/19 10:40:56;;;;;;;5.60;1.50;;;;;;;32.55;20.97;96871.00;2072346;28;20513;-64
2022/07/19 10:42:07;;;;;;;5.80;2.23;;;;;;;32.47;21.01;96857.69;2070982;28;20431;-64
2022/07/19 10:43:16;;;;;;;2.93;1.90;;;;;;;31.81;21.57;96853.59;2073234;28;20472;-64
2022/07/19 10:44:18;;;;;;;3.83;1.80;;;;;;;32.16;21.59;96852.75;2072749;28;20909;-64
2022/07/19 10:45:19;;;;;;;5.53;2.47;;;;;;;33.02;21.08;96860.31;2073736;28;20431;-64
2022/07/19 10:46:31;;;;;;;13.40;2.10;;;;;;;32.59;21.08;96855.22;2074303;28;20430;-64
2022/07/19 10:47:37;;;;;;;29.47;2.60;;;;;;;33.58;20.85;96847.47;2074111;28;20486;-64
2022/07/19 10:48:48;;;;;;;7.73;2.03;;;;;;;34.00;19.77;96856.16;2074350;28;20418;-64
2022/07/19 10:49:49;;;;;;;5.10;1.80;;;;;;;33.82;20.53;96848.69;2074045;28;20514;-63
2022/07/19 10:50:54;;;;;;;15.47;2.60;;;;;;;34.02;19.09;96851.34;2075167;28;20466;-64
2022/07/19 10:52:27;;;;;;;18.17;3.80;;;;;;;32.44;21.12;96852.66;2072023;28;20434;-64
2022/07/19 10:53:41;;;;;;;11.40;2.20;;;;;;;33.17;20.06;96846.63;2071954;28;20434;-64
2022/07/19 10:54:43;;;;;;;3.87;1.60;;;;;;;33.11;20.16;96843.91;2071953;28;20508;-65
2022/07/19 10:55:44;;;;;;;6.27;2.60;;;;;;;32.71;20.88;96842.78;2073233;28;20430;-65
2022/07/19 10:56:57;;;;;;;6.10;2.07;;;;;;;32.83;20.56;96834.09;2070137;28;20423;-65
2022/07/19 10:57:58;;;;;;;3.20;1.63;;;;;;;33.39;19.81;96829.38;2071871;28;21090;-65
2022/07/19 10:59:02;;;;;;;5.77;2.20;;;;;;;32.89;20.35;96839.50;2071382;28;20434;-65
2022/07/19 11:00:27;;;;;;;8.83;2.43;;;;;;;32.95;20.08;96834.31;2070866;28;20419;-65
2022/07/19 11:01:32;;;;;;;16.17;2.73;;;;;;;33.94;18.83;96835.34;2071129;28;20468;-64
2022/07/19 11:02:34;;;;;;;18.17;4.23;;;;;;;34.64;17.99;96826.53;2073303;28;21169;-64
2022/07/19 11:03:47;;;;;;;23.67;6.83;;;;;;;34.98;17.48;96829.88;2071070;28;20969;-64
2022/07/19 11:04:49;;;;;;;21.37;5.90;;;;;;;34.77;17.65;96832.91;2072921;28;21090;-64
2022/07/19 11:05:57;;;;;;;15.40;3.13;;;;;;;35.22;17.00;96823.84;2074651;28;20427;-64
2022/07/19 11:07:10;;;;;;;8.97;2.60;;;;;;;34.05;17.98;96835.72;2072505;28;20431;-64
2022/07/19 11:08:12;;;;;;;17.67;2.80;;;;;;;34.46;17.54;96829.13;2077417;28;20533;-64
2022/07/19 11:38:51;;;;;;;5.60;2.27;;;;;;;34.26;17.06;96799.38;2101040;27;21057;-64
2022/07/19 11:39:53;;;;;;;12.83;2.33;;;;;;;34.43;16.92;96807.88;2098881;28;20463;-64
2022/07/19 11:40:55;;;;;;;10.67;2.00;;;;;;;34.07;17.54;96798.41;2097680;28;20429;-64
2022/07/19 11:41:56;;;;;;;11.50;2.30;;;;;;;34.46;16.98;96796.59;2092015;28;21125;-65
2022/07/19 11:42:58;;;;;;;10.43;2.43;;;;;;;34.02;17.38;96789.06;2079173;28;20909;-63
2022/07/19 11:44:18;;;;;;;9.23;2.07;;;;;;;34.44;17.74;96796.81;2082636;28;20559;-64
2022/07/19 11:45:22;;;;;;;10.20;2.20;;;;;;;34.53;17.15;96783.84;2081454;28;20434;-63
2022/07/19 11:46:29;;;;;;;4.63;1.70;;;;;;;34.92;17.08;96791.94;2080696;28;20820;-63
2022/07/19 11:47:33;;;;;;;6.17;2.43;;;;;;;35.15;17.30;96786.75;2073482;28;20751;-63
2022/07/19 11:48:34;;;;;;;7.10;2.10;;;;;;;35.95;16.63;96785.16;2072953;28;20424;-63
2022/07/19 11:49:39;;;;;;;13.27;2.47;;;;;;;35.70;17.01;96787.91;2072085;28;20424;-64
2022/07/19 11:50:41;;;;;;;7.63;2.40;;;;;;;36.12;15.71;96785.34;2069478;28;20776;-64
2022/07/19 11:51:59;;;;;;;8.00;1.77;;;;;;;35.25;16.47;96788.13;2072438;28;20537;-63
2022/07/19 11:53:00;;;;;;;5.20;1.53;;;;;;;33.74;17.93;96788.50;2073973;28;20764;-64
2022/07/19 11:54:05;;;;;;;16.10;2.37;;;;;;;33.87;17.85;96783.09;2075883;28;21122;-62
2022/07/19 11:55:07;;;;;;;7.60;2.03;;;;;;;33.66;18.07;96770.63;2074567;28;20686;-65
2022/07/19 11:56:20;;;;;;;3.23;2.30;;;;;;;33.20;18.39;96781.31;2074140;28;20435;-65
2022/07/19 11:57:26;;;;;;;5.13;2.13;;;;;;;34.25;17.88;96782.28;2068691;28;20462;-64
2022/07/19 11:58:29;;;;;;;4.20;2.07;;;;;;;34.85;17.64;96778.44;2069933;28;20462;-65
2022/07/19 11:59:31;;;;;;;4.97;2.10;;;;;;;35.88;16.57;96778.97;2074675;28;20926;-65
2022/07/19 12:00:33;;;;;;;8.90;2.53;;;;;;;36.33;16.57;96785.94;2073857;28;20427;-65
2022/07/19 12:01:38;;;;;;;16.50;2.70;;;;;;;36.15;16.18;96780.53;2074156;28;20431;-65
2022/07/19 12:02:50;;;;;;;6.90;2.10;;;;;;;34.87;17.29;96789.91;2070363;28;20805;-65
2022/07/19 12:04:03;;;;;;;6.87;2.83;;;;;;;34.71;17.16;96777.66;2070271;28;20489;-65
2022/07/19 12:05:11;;;;;;;12.43;2.60;;;;;;;35.35;16.70;96783.03;2071116;28;20427;-65
2022/07/19 12:06:12;;;;;;;5.40;2.27;;;;;;;35.96;16.18;96780.53;2071051;28;20432;-65
2022/07/19 12:07:16;;;;;;;5.13;1.80;;;;;;;35.56;16.31;96783.69;2073595;28;20985;-65
2022/07/19 12:08:18;;;;;;;10.27;2.70;;;;;;;35.54;16.46;96775.78;2074657;28;20427;-65
2022/07/19 12:09:27;;;;;;;10.47;2.50;;;;;;;35.37;16.58;96775.53;2072700;28;20430;-65
2022/07/19 12:10:31;;;;;;;6.53;2.40;;;;;;;35.06;17.08;96779.09;2074522;28;20422;-66
2022/07/19 12:11:39;;;;;;;6.20;1.87;;;;;;;35.73;16.21;96783.91;2070437;28;20430;-65
2022/07/19 12:12:41;;;;;;;5.30;2.60;;;;;;;35.29;16.53;96767.66;2076009;28;20443;-65
2022/07/19 12:13:43;;;;;;;6.37;2.20;;;;;;;35.46;16.89;96770.63;2074559;28;20441;-65
2022/07/19 12:15:05;;;;;;;3.70;1.67;;;;;;;35.19;16.41;96772.75;2072472;28;20782;-65
2022/07/19 12:16:08;;;;;;;7.30;1.90;;;;;;;34.47;17.04;96780.09;2072567;28;20423;-64
2022/07/19 12:17:17;;;;;;;8.30;2.67;;;;;;;33.78;17.55;96770.81;2073148;28;20457;-64
2022/07/19 12:18:40;;;;;;;7.77;2.20;;;;;;;33.92;17.17;96767.03;2073888;28;20538;-73
2022/07/19 12:19:48;;;;;;;6.70;2.63;;;;;;;34.55;16.85;96770.91;2071639;28;20430;-65
2022/07/19 12:21:21;;;;;;;7.43;2.70;;;;;;;34.46;17.36;96764.91;2070609;28;20787;-64
2022/07/19 12:22:30;;;;;;;5.03;2.27;;;;;;;34.25;17.58;96755.22;2072565;28;20455;-66
2022/07/19 12:23:31;;;;;;;6.90;2.73;;;;;;;34.44;17.21;96752.63;2074648;28;20426;-66
2022/07/19 12:53:20;;;;;;;6.20;2.40;;;;;;;36.72;15.34;96739.41;2103378;27;20571;-64
2022/07/19 12:54:22;;;;;;;8.13;2.70;;;;;;;36.45;16.26;96739.81;2095620;28;20421;-65
2022/07/19 12:55:25;;;;;;;5.90;2.10;;;;;;;37.10;16.03;96746.31;2095560;28;20890;-66
2022/07/19 12:56:27;;;;;;;9.40;2.60;;;;;;;37.77;15.17;96739.69;2097207;28;20435;-66
2022/07/19 12:57:29;;;;;;;6.80;2.27;;;;;;;38.32;15.58;96735.66;2082607;28;20465;-63
2022/07/19 12:59:50;;;;;;;7.30;2.97;;;;;;;36.84;15.45;96743.00;2075828;28;20437;-63
2022/07/19 13:00:52;;;;;;;10.93;4.03;;;;;;;37.46;14.99;96736.31;2079519;28;20950;-62
2022/07/19 13:01:58;;;;;;;10.10;2.57;;;;;;;36.50;15.80;96736.41;2077586;28;20575;-63
2022/07/19 13:03:00;;;;;;;9.47;3.20;;;;;;;36.48;15.35;96733.91;2073268;28;21171;-63
2022/07/19 13:04:02;;;;;;;6.53;3.10;;;;;;;37.37;15.24;96729.56;2071902;28;20423;-62
2022/07/19 13:05:04;;;;;;;10.77;3.00;;;;;;;38.13;14.78;96728.69;2082266;28;20430;-62
2022/07/19 13:06:06;;;;;;;6.50;2.60;;;;;;;38.67;14.45;96723.69;2081921;28;21085;-63
2022/07/19 13:07:09;;;;;;;8.00;1.97;;;;;;;38.25;14.79;96721.31;2073651;28;20454;-65
2022/07/19 13:08:10;;;;;;;20.13;3.20;;;;;;;38.13;15.02;96725.97;2072172;28;20431;-65
2022/07/19 13:09:11;;;;;;;11.10;2.43;;;;;;;38.76;14.53;96728.78;2076209;28;20422;-64
2022/07/19 13:10:14;;;;;;;8.07;2.27;;;;;;;39.18;14.45;96725.63;2075024;28;20437;-65
2022/07/19 13:11:15;;;;;;;3.80;2.40;;;;;;;37.68;15.39;96722.06;2073234;28;20422;-65
2022/07/19 13:12:17;;;;;;;12.40;2.63;;;;;;;36.97;15.21;96728.34;2071365;28;20475;-64
2022/07/19 13:13:18;;;;;;;8.13;2.37;;;;;;;37.29;14.95;96705.41;2073503;28;20451;-65
2022/07/19 13:14:20;;;;;;;12.33;3.20;;;;;;;38.20;15.22;96719.28;2073245;28;20466;-65
2022/07/19 13:15:22;;;;;;;10.83;2.47;;;;;;;38.33;15.00;96720.09;2073891;28;20430;-65
2022/07/19 13:16:23;;;;;;;16.07;2.70;;;;;;;36.16;15.96;96727.84;2074536;28;20431;-65
2022/07/19 13:17:25;;;;;;;18.43;2.67;;;;;;;35.66;16.22;96715.31;2073016;28;20849;-65
2022/07/19 13:18:26;;;;;;;19.27;3.47;;;;;;;36.13;16.48;96716.38;2074820;28;20432;-65
2022/07/19 13:19:28;;;;;;;22.00;4.67;;;;;;;36.11;16.29;96728.53;2072662;28;20435;-65
2022/07/19 13:20:29;;;;;;;22.10;2.97;;;;;;;35.91;16.43;96721.50;2072112;28;20422;-64
2022/07/19 13:21:31;;;;;;;17.33;3.23;;;;;;;36.11;16.38;96718.53;2072804;28;20431;-64
2022/07/19 13:22:33;;;;;;;7.70;2.73;;;;;;;35.79;16.21;96713.22;2073835;28;20501;-65
2022/07/19 13:23:35;;;;;;;5.17;2.17;;;;;;;36.18;16.28;96715.69;2072497;28;20431;-65
2022/07/19 13:24:36;;;;;;;8.13;2.60;;;;;;;36.03;15.42;96721.53;2073531;28;20430;-65
2022/07/19 13:25:57;;;;;;;7.63;2.67;;;;;;;35.42;16.18;96718.69;2072653;28;20454;-64
2022/07/19 13:26:59;;;;;;;18.97;2.87;;;;;;;35.61;15.65;96705.13;2073293;28;20460;-64
2022/07/19 13:28:02;;;;;;;10.60;2.87;;;;;;;36.34;15.36;96707.94;2067485;28;20436;-65
2022/07/19 13:29:03;;;;;;;15.37;2.70;;;;;;;35.50;16.71;96714.84;2067822;28;20439;-62
2022/07/19 13:30:05;;;;;;;11.47;2.43;;;;;;;36.71;15.91;96715.97;2068596;28;20931;-64
2022/07/19 13:31:07;;;;;;;10.03;2.83;;;;;;;36.47;16.20;96715.09;2073430;28;20434;-64
2022/07/19 13:32:09;;;;;;;8.03;2.80;;;;;;;36.32;15.87;96705.47;2072904;28;20895;-64
2022/07/19 13:33:11;;;;;;;9.97;2.67;;;;;;;36.11;16.35;96714.94;2075149;28;20478;-64
2022/07/19 13:34:13;;;;;;;3.80;2.30;;;;;;;36.51;15.83;96716.31;2071360;28;20434;-64
2022/07/19 13:35:16;;;;;;;8.30;2.67;;;;;;;36.02;15.84;96710.91;2074775;28;20442;-63
2022/07/19 13:36:18;;;;;;;7.27;2.30;;;;;;;36.76;16.39;96713.38;2075216;28;20462;-63
2022/07/19 13:37:19;;;;;;;5.57;2.70;;;;;;;36.80;15.46;96711.88;2073315;28;20458;-64
2022/07/19 13:38:21;;;;;;;3.80;2.50;;;;;;;36.47;16.29;96704.22;2074277;28;20443;-64
2022/07/19 13:39:22;;;;;;;3.63;2.17;;;;;;;36.11;16.61;96691.34;2074437;28;20441;-64
2022/07/19 13:40:24;;;;;;;6.43;2.80;;;;;;;36.66;16.28;96696.81;2076240;28;20410;-66
2022/07/19 13:41:25;;;;;;;6.47;2.67;;;;;;;37.24;16.86;96685.19;2071158;28;20435;-64
2022/07/19 14:09:53;;;;;;;6.43;2.70;;;;;;;36.22;16.60;96667.97;2084581;28;20563;-65
2022/07/19 14:10:55;;;;;;;8.07;2.50;;;;;;;36.81;16.29;96667.31;2082122;28;20435;-66
2022/07/19 14:11:57;;;;;;;8.10;2.90;;;;;;;37.65;16.40;96657.16;2077849;28;20941;-66
2022/07/19 14:12:58;;;;;;;18.77;2.83;;;;;;;37.22;15.85;96662.00;2072980;28;20635;-66
2022/07/19 14:14:20;;;;;;;5.40;2.63;;;;;;;37.51;15.77;96660.19;2071104;28;20431;-66
2022/07/19 14:15:22;;;;;;;5.53;1.90;;;;;;;36.10;16.99;96670.66;2073018;28;20977;-66
2022/07/19 14:16:23;;;;;;;10.60;2.30;;;;;;;35.93;17.19;96651.47;2072311;28;20767;-66
2022/07/19 14:17:25;;;;;;;4.27;1.80;;;;;;;35.57;17.32;96664.03;2070082;28;21005;-66
2022/07/19 14:18:28;;;;;;;12.60;3.00;;;;;;;36.49;16.87;96664.06;2070773;28;20431;-65
2022/07/19 14:19:29;;;;;;;3.60;2.07;;;;;;;36.46;16.66;96662.63;2072952;28;20426;-65
2022/07/19 14:20:30;;;;;;;6.70;3.20;;;;;;;36.83;16.58;96653.47;2074484;28;20423;-66
2022/07/19 14:21:34;;;;;;;11.97;2.53;;;;;;;37.74;15.49;96663.91;2075238;28;20423;-64
2022/07/19 14:22:35;;;;;;;8.70;2.77;;;;;;;37.68;15.19;96664.88;2074801;28;20470;-65
2022/07/19 14:23:37;;;;;;;6.63;2.40;;;;;;;36.19;16.25;96664.88;2075647;28;20427;-65
2022/07/19 14:24:38;;;;;;;5.93;2.10;;;;;;;37.28;15.40;96660.19;2075183;28;21086;-65
2022/07/19 14:25:43;;;;;;;7.73;2.47;;;;;;;37.06;16.06;96658.09;2075205;28;20910;-65
2022/07/19 14:26:59;;;;;;;20.03;2.90;;;;;;;36.63;16.02;96661.94;2072751;28;21537;-65
2022/07/19 14:28:01;;;;;;;24.60;3.43;;;;;;;37.26;15.38;96661.25;2073252;28;20419;-65
2022/07/19 14:29:03;;;;;;;8.17;3.00;;;;;;;38.18;14.78;96658.78;2074217;28;20420;-65
2022/07/19 14:30:05;;;;;;;10.80;2.50;;;;;;;37.55;15.45;96657.81;2075544;28;21121;-65
2022/07/19 14:31:07;;;;;;;21.37;3.17;;;;;;;38.14;15.50;96657.59;2077772;28;20454;-64
2022/07/19 14:32:09;;;;;;;10.03;2.60;;;;;;;37.83;14.82;96661.66;2072848;28;20462;-66
2022/07/19 14:33:11;;;;;;;10.10;2.03;;;;;;;36.65;16.37;96655.22;2072610;28;20427;-65
2022/07/19 14:34:12;;;;;;;8.33;2.63;;;;;;;35.74;16.55;96661.50;2073149;28;20418;-65
2022/07/19 14:35:34;;;;;;;34.57;3.33;;;;;;;37.52;16.13;96650.09;2072764;28;20438;-65
2022/07/19 14:36:35;;;;;;;26.47;3.40;;;;;;;38.33;15.39;96657.41;2075403;28;20893;-64
2022/07/19 14:37:37;;;;;;;27.03;3.43;;;;;;;38.82;14.70;96663.16;2071384;28;20491;-64
2022/07/19 14:38:38;;;;;;;17.80;2.70;;;;;;;39.12;14.60;96661.13;2076904;28;20469;-65
2022/07/19 14:39:40;;;;;;;12.57;3.10;;;;;;;38.65;14.60;96654.97;2069161;28;20479;-65
2022/07/19 14:40:41;;;;;;;11.90;3.03;;;;;;;38.97;14.67;96661.72;2074285;28;20426;-65
2022/07/19 14:41:43;;;;;;;8.13;2.27;;;;;;;38.28;14.70;96655.41;2075317;28;20434;-65
2022/07/19 14:42:45;;;;;;;7.10;2.37;;;;;;;38.65;14.63;96648.66;2068107;28;20427;-65
2022/07/19 14:43:48;;;;;;;22.73;3.60;;;;;;;39.02;14.14;96651.72;2070632;28;20437;-65
2022/07/19 14:44:50;;;;;;;6.87;2.50;;;;;;;37.92;14.82;96653.91;2070732;28;20745;-65
2022/07/19 14:45:51;;;;;;;29.13;3.37;;;;;;;37.82;14.89;96646.38;2072729;28;20821;-65
2022/07/19 14:46:55;;;;;;;5.17;2.30;;;;;;;36.44;15.92;96645.72;2072609;28;20877;-65
2022/07/19 14:47:57;;;;;;;22.73;2.90;;;;;;;36.97;15.75;96643.19;2072880;28;20435;-65
2022/07/19 14:49:00;;;;;;;21.77;3.00;;;;;;;37.78;15.43;96656.06;2073195;28;20460;-65
2022/07/19 14:50:04;;;;;;;18.80;3.27;;;;;;;37.34;14.83;96640.22;2074696;28;21047;-65
2022/07/19 14:51:06;;;;;;;6.50;2.13;;;;;;;35.45;16.06;96650.41;2072043;28;20431;-65
2022/07/19 14:52:07;;;;;;;6.73;2.40;;;;;;;35.05;16.77;96648.09;2073217;28;20985;-65
2022/07/19 14:53:11;;;;;;;14.93;2.50;;;;;;;35.24;16.85;96642.69;2071103;28;20428;-65
2022/07/19 14:54:12;;;;;;;14.80;2.43;;;;;;;36.55;16.13;96642.19;2067967;28;20779;-65
2022/07/19 14:55:23;;;;;;;7.20;3.00;;;;;;;36.42;16.23;96632.38;2069441;28;20509;-65
2022/07/19 14:56:24;;;;;;;10.30;2.50;;;;;;;36.67;16.17;96638.66;2072024;28;20427;-64
2022/07/19 14:57:26;;;;;;;7.67;1.70;;;;;;;37.46;16.02;96623.84;2072521;28;20480;-65
2022/07/19 14:58:27;;;;;;;9.47;2.90;;;;;;;38.15;15.58;96631.19;2073867;28;20448;-65
2022/07/19 14:59:29;;;;;;;14.77;2.53;;;;;;;38.61;14.92;96628.41;2072083;28;20427;-65
2022/07/19 15:00:31;;;;;;;13.00;2.70;;;;;;;39.10;14.19;96633.25;2075914;28;20426;-64
2022/07/19 15:01:33;;;;;;;13.50;2.50;;;;;;;39.08;13.92;96630.78;2072498;28;20432;-65
2022/07/19 15:02:35;;;;;;;23.60;2.93;;;;;;;39.33;13.96;96632.22;2073142;28;20455;-65
2022/07/19 15:03:36;;;;;;;6.83;2.23;;;;;;;39.18;13.72;96633.63;2073424;28;20438;-65
2022/07/19 15:04:38;;;;;;;10.53;1.97;;;;;;;38.38;14.44;96631.03;2075443;28;20968;-65
2022/07/19 15:05:39;;;;;;;10.67;2.30;;;;;;;37.93;15.02;96620.13;2075080;28;21101;-65
2022/07/19 15:06:41;;;;;;;5.20;2.23;;;;;;;37.50;14.78;96617.69;2075179;28;20930;-65
2022/07/19 15:07:43;;;;;;;5.27;2.97;;;;;;;36.93;15.39;96627.34;2074093;28;21125;-65
2022/07/19 15:08:44;;;;;;;4.90;1.93;;;;;;;37.63;14.96;96616.56;2071677;28;20797;-65
2022/07/19 15:09:47;;;;;;;11.30;2.63;;;;;;;37.38;14.40;96617.72;2071590;28;20907;-65
2022/07/19 15:10:48;;;;;;;6.97;2.60;;;;;;;36.60;15.43;96620.56;2072723;28;20419;-65
2022/07/19 15:11:50;;;;;;;7.67;2.67;;;;;;;37.18;14.67;96614.53;2072551;28;20434;-65
2022/07/19 15:12:52;;;;;;;5.77;2.20;;;;;;;35.89;15.66;96628.53;2071735;28;20438;-65
2022/07/19 15:13:53;;;;;;;6.67;2.10;;;;;;;35.46;16.32;96630.31;2070763;28;20427;-63
2022/07/19 15:14:55;;;;;;;4.90;2.13;;;;;;;35.45;16.33;96623.25;2074028;28;21188;-64
2022/07/19 15:15:56;;;;;;;16.10;7.90;;;;;;;36.84;15.50;96619.75;2073917;28;20910;-64
2022/07/19 15:17:00;;;;;;;30.77;21.97;;;;;;;37.51;15.09;96602.16;2074295;28;20423;-64
2022/07/19 15:18:02;;;;;;;9.10;4.33;;;;;;;37.92;14.78;96611.16;2072265;28;20431;-64
2022/07/19 15:19:10;;;;;;;4.53;2.00;;;;;;;37.55;14.65;96609.63;2072843;28;20438;-65
2022/07/19 15:20:12;;;;;;;7.60;2.30;;;;;;;36.52;15.39;96609.22;2075950;28;20430;-65
2022/07/19 15:21:13;;;;;;;21.20;2.20;;;;;;;37.46;15.27;96602.91;2070392;28;20927;-64
2022/07/19 15:22:15;;;;;;;8.30;2.37;;;;;;;37.69;14.17;96610.16;2069000;28;20470;-65
2022/07/19 15:23:16;;;;;;;11.47;2.40;;;;;;;37.01;14.38;96603.56;2068416;28;20439;-65
2022/07/19 15:24:19;;;;;;;11.00;2.83;;;;;;;36.99;15.33;96602.97;2066746;28;21038;-65
2022/07/19 15:25:21;;;;;;;9.80;2.13;;;;;;;37.38;14.36;96600.56;2068152;28;20779;-65
2022/07/19 15:26:22;;;;;;;13.03;2.20;;;;;;;36.40;14.75;96609.22;2066404;28;20821;-65
2022/07/19 15:27:24;;;;;;;8.67;2.63;;;;;;;35.43;16.01;96602.84;2066105;28;20535;-65
2022/07/19 15:28:25;;;;;;;7.70;2.80;;;;;;;35.55;15.71;96600.16;2071241;28;20956;-64
2022/07/19 15:29:28;;;;;;;6.80;2.60;;;;;;;36.16;15.80;96595.53;2067823;28;20454;-65